Time;durP1;ratioP1;P1;durP2;ratioP2;P2;SDS_P1;SDS_P2;PMS_P1;PMS_P2;Temp;Humidity;BMP_temperature;BMP_pressure;BME280_temperature;BME280_humidity;BME280_pressure;Samples;Min_cycle;Max_cycle;Signal;HPM_P1;HPM_P2
2021/12/21 00:00:14;;;;;;;2.17;0.30;;;;;;;2.36;100.00;101955.59;5082305;28;20036;-47
2021/12/21 00:02:44;;;;;;;6.68;0.75;;;;;;;2.36;100.00;101960.84;5074175;28;20427;-48
2021/12/21 00:05:16;;;;;;;8.27;2.20;;;;;;;2.35;100.00;101956.56;5077875;28;20028;-48
2021/12/21 00:07:42;;;;;;;2.85;0.50;;;;;;;2.35;100.00;101951.31;5078096;28;20044;-51
2021/12/21 00:10:09;;;;;;;5.65;1.60;;;;;;;2.37;100.00;101959.06;5076544;28;20390;-46
2021/12/21 00:12:36;;;;;;;0.63;0.40;;;;;;;2.38;100.00;101955.50;5084584;28;20047;-48
2021/12/21 00:15:07;;;;;;;5.30;0.60;;;;;;;2.41;100.00;101952.69;5075711;28;20614;-49
2021/12/21 00:20:29;;;;;;;4.22;0.73;;;;;;;2.44;100.00;101943.78;5076501;28;20032;-48
2021/12/21 00:25:23;;;;;;;6.55;0.70;;;;;;;2.53;100.00;101932.69;5080291;28;20032;-50
2021/12/21 00:27:51;;;;;;;1.25;0.32;;;;;;;2.55;100.00;101926.41;5075130;28;20027;-48
2021/12/21 00:30:17;;;;;;;1.48;0.32;;;;;;;2.64;100.00;101929.38;5078889;28;20077;-48
2021/12/21 00:32:43;;;;;;;6.47;1.70;;;;;;;2.65;100.00;101926.63;5072462;28;20032;-51
2021/12/21 00:35:09;;;;;;;3.50;0.60;;;;;;;2.61;100.00;101918.16;5081849;28;20035;-51
2021/12/21 00:37:38;;;;;;;1.92;0.45;;;;;;;2.60;100.00;101923.47;5075020;28;20382;-49
2021/12/21 00:40:04;;;;;;;7.10;1.75;;;;;;;2.62;100.00;101924.22;5069161;28;20036;-48
2021/12/21 00:42:30;;;;;;;4.30;0.77;;;;;;;2.63;100.00;101925.88;5084391;28;20035;-48
2021/12/21 00:44:55;;;;;;;1.38;0.25;;;;;;;2.64;100.00;101932.81;5079932;28;20126;-50
2021/12/21 00:47:21;;;;;;;3.55;0.65;;;;;;;2.66;100.00;101928.31;5080195;28;20072;-50
2021/12/21 00:49:48;;;;;;;8.18;1.13;;;;;;;2.69;100.00;101922.03;5077849;28;20024;-49
2021/12/21 00:52:15;;;;;;;7.15;0.40;;;;;;;2.70;100.00;101915.84;5084321;28;20500;-49
2021/12/21 00:54:40;;;;;;;4.97;1.05;;;;;;;2.71;100.00;101905.28;5082671;28;20024;-52
2021/12/21 00:57:08;;;;;;;12.13;1.50;;;;;;;2.72;100.00;101903.47;5076713;28;20492;-46
2021/12/21 00:59:34;;;;;;;7.35;0.65;;;;;;;2.73;100.00;101899.91;5074205;28;20055;-50
2021/12/21 01:02:01;;;;;;;5.53;1.48;;;;;;;2.72;100.00;101893.84;5071519;28;20024;-47
2021/12/21 01:04:36;;;;;;;6.65;0.70;;;;;;;2.70;100.00;101885.25;5079863;28;20035;-46
2021/12/21 01:07:16;;;;;;;5.57;1.05;;;;;;;2.73;100.00;101882.41;5075096;28;20564;-48
2021/12/21 01:12:48;;;;;;;6.88;0.88;;;;;;;2.73;100.00;101882.41;5041461;28;20144;-51
2021/12/21 01:20:40;;;;;;;2.63;0.85;;;;;;;2.75;100.00;101880.53;5043792;28;20077;-48
2021/12/21 01:23:33;;;;;;;2.75;0.88;;;;;;;2.74;100.00;101886.72;5075912;28;20398;-47
2021/12/21 01:26:08;;;;;;;4.40;0.63;;;;;;;2.70;100.00;101887.84;5082072;28;20052;-50
2021/12/21 01:36:22;;;;;;;8.05;0.50;;;;;;;2.72;100.00;101883.38;5076259;28;20453;-47
2021/12/21 01:39:12;;;;;;;4.95;0.77;;;;;;;2.72;100.00;101885.97;5074247;28;20051;-50
2021/12/21 01:49:54;;;;;;;1.38;0.63;;;;;;;2.72;100.00;101880.75;5079030;28;20040;-50
2021/12/21 01:52:23;;;;;;;4.55;0.28;;;;;;;2.73;100.00;101877.16;5082138;28;20381;-49
2021/12/21 01:54:49;;;;;;;3.78;0.10;;;;;;;2.74;100.00;101875.41;5078246;28;20034;-50
2021/12/21 01:57:15;;;;;;;2.97;0.50;;;;;;;2.75;100.00;101879.69;5082019;28;20030;-49
2021/12/21 01:59:42;;;;;;;11.90;1.02;;;;;;;2.75;100.00;101880.53;5082371;28;20623;-49
2021/12/21 02:02:09;;;;;;;4.82;1.70;;;;;;;2.74;100.00;101881.47;5079319;28;20028;-49
2021/12/21 02:04:36;;;;;;;8.10;0.63;;;;;;;2.74;100.00;101875.41;5080618;28;20381;-52
2021/12/21 02:07:01;;;;;;;3.28;0.43;;;;;;;2.76;100.00;101868.25;5081785;28;20032;-49
2021/12/21 02:09:37;;;;;;;3.35;0.93;;;;;;;2.76;100.00;101874.38;5082521;28;20035;-52
2021/12/21 02:12:10;;;;;;;1.17;0.25;;;;;;;2.79;100.00;101866.28;5080849;28;20024;-53
2021/12/21 02:14:36;;;;;;;4.88;1.33;;;;;;;2.80;100.00;101862.72;5079187;28;20028;-50
2021/12/21 02:20:13;;;;;;;2.40;0.93;;;;;;;2.79;100.00;101866.28;5081761;28;20086;-49
2021/12/21 02:22:45;;;;;;;5.22;0.30;;;;;;;2.78;100.00;101866.38;5081018;28;20032;-52
2021/12/21 02:27:56;;;;;;;6.47;0.90;;;;;;;2.78;100.00;101866.38;5081359;28;20393;-51
2021/12/21 02:30:22;;;;;;;1.92;0.57;;;;;;;2.80;100.00;101854.84;5078767;28;20051;-47
2021/12/21 02:32:48;;;;;;;1.10;0.40;;;;;;;2.80;100.00;101856.63;5078409;28;20100;-50
2021/12/21 02:35:14;;;;;;;5.32;0.52;;;;;;;2.78;100.00;101848.03;5076153;28;20107;-47
2021/12/21 02:37:39;;;;;;;2.85;0.82;;;;;;;2.76;100.00;101852.53;5085660;28;20032;-49
2021/12/21 02:40:06;;;;;;;1.27;0.50;;;;;;;2.75;100.00;101853.50;5084765;28;20028;-48
2021/12/21 02:42:31;;;;;;;1.77;0.45;;;;;;;2.72;100.00;101864.19;5085676;28;20036;-48
2021/12/21 02:44:56;;;;;;;2.13;0.40;;;;;;;2.71;100.00;101852.03;5081959;28;20189;-49
2021/12/21 02:47:22;;;;;;;1.75;0.82;;;;;;;2.73;100.00;101856.22;5077263;28;20032;-46
2021/12/21 02:49:48;;;;;;;3.80;1.27;;;;;;;2.76;100.00;101856.03;5075274;28;20107;-48
2021/12/21 02:52:14;;;;;;;1.70;0.88;;;;;;;2.78;100.00;101853.28;5078329;28;20032;-47
2021/12/21 02:54:39;;;;;;;2.58;1.40;;;;;;;2.81;100.00;101846.06;5075774;28;20159;-49
2021/12/21 02:57:05;;;;;;;3.58;0.65;;;;;;;2.81;100.00;101848.69;5075678;28;20059;-50
2021/12/21 02:59:30;;;;;;;4.47;0.85;;;;;;;2.79;100.00;101845.31;5077561;28;20043;-51
2021/12/21 03:01:56;;;;;;;4.55;0.65;;;;;;;2.79;100.00;101847.94;5082795;28;20028;-48
2021/12/21 03:04:21;;;;;;;3.33;0.40;;;;;;;2.78;100.00;101843.63;5081215;28;20032;-46
2021/12/21 03:12:15;;;;;;;1.77;0.47;;;;;;;2.81;100.00;101832.09;5080400;28;20032;-47
2021/12/21 03:14:41;;;;;;;;;;;;;;;2.81;100.00;101827.72;5080781;28;20469;-52
2021/12/21 03:17:07;;;;;;;7.38;1.88;;;;;;;2.81;100.00;101835.59;5075132;28;19956;-51
2021/12/21 03:19:34;;;;;;;4.45;0.85;;;;;;;2.80;100.00;101833.91;5083230;28;20426;-51
2021/12/21 03:21:59;;;;;;;3.17;0.75;;;;;;;2.80;100.00;101830.44;5079048;28;20405;-51
2021/12/21 03:24:24;;;;;;;4.18;0.70;;;;;;;2.81;100.00;101835.59;5083961;28;20028;-51
2021/12/21 03:26:50;;;;;;;5.05;0.75;;;;;;;2.79;100.00;101839.25;5079616;28;20496;-48
2021/12/21 03:29:16;;;;;;;1.88;0.70;;;;;;;2.77;100.00;101836.72;5078057;28;20523;-49
2021/12/21 03:31:41;;;;;;;3.50;1.00;;;;;;;2.74;100.00;101836.13;5073173;28;20059;-49
2021/12/21 03:34:07;;;;;;;7.72;1.90;;;;;;;2.74;100.00;101842.19;5072527;28;20031;-53
2021/12/21 03:36:33;;;;;;;3.33;0.32;;;;;;;2.77;100.00;101836.72;5081343;28;20107;-47
2021/12/21 03:39:05;;;;;;;0.95;0.65;;;;;;;2.76;100.00;101835.06;5084300;28;20038;-52
2021/12/21 03:41:31;;;;;;;4.30;0.55;;;;;;;2.76;100.00;101828.97;5083260;28;20112;-53
2021/12/21 03:44:00;;;;;;;8.70;1.60;;;;;;;2.75;100.00;101836.00;5075821;28;20463;-48
2021/12/21 03:46:26;;;;;;;1.38;0.50;;;;;;;2.74;100.00;101836.94;5071102;28;20107;-48
2021/12/21 03:48:51;;;;;;;2.20;0.38;;;;;;;2.73;100.00;101840.50;5078676;28;20051;-48
2021/12/21 03:51:19;;;;;;;0.95;0.32;;;;;;;2.72;100.00;101832.75;5079475;28;20036;-46
2021/12/21 03:53:47;;;;;;;1.45;0.98;;;;;;;2.74;100.00;101834.34;5081059;28;20039;-52
2021/12/21 03:56:36;;;;;;;3.38;1.70;;;;;;;2.73;100.00;101839.66;5076463;28;20032;-50
2021/12/21 03:59:02;;;;;;;4.18;0.98;;;;;;;2.71;100.00;101821.47;5076772;28;20046;-49
2021/12/21 04:01:27;;;;;;;1.48;0.47;;;;;;;2.74;100.00;101826.47;5074945;28;20392;-48
2021/12/21 04:03:53;;;;;;;4.03;0.57;;;;;;;2.74;100.00;101833.50;5076751;28;20040;-50
2021/12/21 04:06:18;;;;;;;1.30;0.20;;;;;;;2.73;100.00;101827.41;5080406;28;20032;-50
2021/12/21 04:08:44;;;;;;;6.30;2.30;;;;;;;2.75;100.00;101830.75;5077180;28;20039;-47
2021/12/21 04:11:09;;;;;;;4.80;0.22;;;;;;;2.78;100.00;101824.47;5082023;28;20636;-51
2021/12/21 04:13:34;;;;;;;7.88;0.68;;;;;;;2.77;100.00;101823.63;5072609;28;20035;-50
2021/12/21 04:16:00;;;;;;;4.13;0.40;;;;;;;2.77;100.00;101820.19;5081881;28;20511;-49
2021/12/21 04:18:26;;;;;;;1.15;0.57;;;;;;;2.76;100.00;101811.50;5081316;28;20024;-46
2021/12/21 04:20:52;;;;;;;8.48;0.80;;;;;;;2.75;100.00;101819.44;5076746;28;20027;-52
2021/12/21 04:23:18;;;;;;;4.72;0.73;;;;;;;2.75;100.00;101817.66;5081102;28;20031;-49
2021/12/21 04:25:43;;;;;;;5.53;2.10;;;;;;;2.74;100.00;101816.00;5078136;28;20028;-49
2021/12/21 04:28:09;;;;;;;1.77;0.40;;;;;;;2.74;100.00;101818.63;5085201;28;20079;-45
2021/12/21 04:30:34;;;;;;;1.65;1.20;;;;;;;2.74;100.00;101816.00;5069015;28;20032;-51
2021/12/21 04:33:00;;;;;;;4.47;1.08;;;;;;;2.73;100.00;101809.06;5079488;28;20480;-52
2021/12/21 04:35:25;;;;;;;6.57;0.45;;;;;;;2.76;100.00;101808.00;5085351;28;20077;-46
2021/12/21 04:38:11;;;;;;;4.97;0.60;;;;;;;2.78;100.00;101806.97;5083334;28;20040;-50
2021/12/21 04:40:41;;;;;;;10.90;1.15;;;;;;;2.79;100.00;101805.22;5075955;28;20190;-49
2021/12/21 04:43:07;;;;;;;5.03;0.63;;;;;;;2.78;100.00;101806.13;5079869;28;20035;-49
2021/12/21 04:45:32;;;;;;;1.35;0.47;;;;;;;2.78;100.00;101800.91;5081489;28;20551;-51
2021/12/21 04:47:58;;;;;;;2.00;0.45;;;;;;;2.78;100.00;101803.50;5071844;28;20043;-51
2021/12/21 04:50:24;;;;;;;10.88;0.88;;;;;;;2.78;100.00;101800.91;5082523;28;20024;-48
2021/12/21 04:52:49;;;;;;;8.88;0.60;;;;;;;2.76;100.00;101790.53;5077191;28;20556;-48
2021/12/21 04:55:15;;;;;;;0.30;0.20;;;;;;;2.77;100.00;101792.22;5081202;28;20028;-50
2021/12/21 04:57:43;;;;;;;4.95;0.57;;;;;;;2.74;100.00;101797.66;5081296;28;20396;-50
2021/12/21 05:00:11;;;;;;;1.98;0.63;;;;;;;2.73;100.00;101793.34;5082835;28;20122;-49
2021/12/21 05:02:36;;;;;;;5.40;0.47;;;;;;;2.71;100.00;101791.78;5078761;28;20032;-49
2021/12/21 05:05:02;;;;;;;3.17;0.73;;;;;;;2.70;100.00;101790.94;5082168;28;20035;-47
2021/12/21 05:07:31;;;;;;;5.00;0.65;;;;;;;2.71;100.00;101786.53;5075001;28;20401;-51
2021/12/21 05:09:57;;;;;;;1.92;0.35;;;;;;;2.70;100.00;101788.34;5078960;28;20029;-48
2021/12/21 05:12:23;;;;;;;3.60;2.08;;;;;;;2.71;100.00;101794.41;5080237;28;20043;-53
2021/12/21 05:14:48;;;;;;;2.03;0.25;;;;;;;2.69;100.00;101794.53;5081374;28;20067;-51
2021/12/21 05:17:14;;;;;;;3.00;0.55;;;;;;;2.70;100.00;101793.56;5076608;28;20060;-48
2021/12/21 05:19:39;;;;;;;4.75;0.57;;;;;;;2.70;100.00;101785.72;5071010;28;20443;-48
2021/12/21 05:22:05;;;;;;;6.55;0.50;;;;;;;2.70;100.00;101788.34;5068489;28;20029;-47
2021/12/21 05:24:31;;;;;;;5.97;0.32;;;;;;;2.70;100.00;101788.34;5079868;28;20111;-51
2021/12/21 05:26:56;;;;;;;5.22;0.65;;;;;;;2.71;100.00;101795.25;5082652;28;20444;-50
2021/12/21 05:29:23;;;;;;;2.65;0.60;;;;;;;2.71;100.00;101792.66;5082986;28;20029;-49
2021/12/21 05:31:49;;;;;;;2.65;1.02;;;;;;;2.70;100.00;101801.44;5074591;28;20484;-46
2021/12/21 05:34:14;;;;;;;7.93;0.90;;;;;;;2.72;100.00;101798.72;5080619;28;20032;-48
2021/12/21 05:36:39;;;;;;;3.88;1.08;;;;;;;2.73;100.00;101795.97;5073987;28;20469;-51
2021/12/21 05:39:14;;;;;;;1.27;0.52;;;;;;;2.75;100.00;101795.88;5081352;28;20039;-46
2021/12/21 05:41:51;;;;;;;3.42;0.90;;;;;;;2.75;100.00;101794.09;5078904;28;20028;-46
2021/12/21 05:44:18;;;;;;;3.30;0.38;;;;;;;2.76;100.00;101793.16;5082987;28;20032;-49
2021/12/21 05:46:44;;;;;;;2.95;0.45;;;;;;;2.76;100.00;101794.91;5078676;28;20032;-49
2021/12/21 05:49:09;;;;;;;0.10;0.10;;;;;;;2.75;100.00;101791.47;5078165;28;20039;-51
2021/12/21 05:51:35;;;;;;;1.17;0.52;;;;;;;2.74;100.00;101789.81;5083950;28;20071;-46
2021/12/21 05:54:00;;;;;;;1.77;0.70;;;;;;;2.73;100.00;101790.72;5077702;28;20044;-49
2021/12/21 05:56:25;;;;;;;3.38;0.65;;;;;;;2.73;100.00;101797.75;5081920;28;20028;-48
2021/12/21 05:58:51;;;;;;;5.70;0.35;;;;;;;2.73;100.00;101803.81;5075044;28;20035;-47
2021/12/21 06:01:16;;;;;;;2.65;0.10;;;;;;;2.75;100.00;101807.19;5075926;28;20473;-48
2021/12/21 06:03:42;;;;;;;1.05;0.30;;;;;;;2.76;100.00;101794.91;5082161;28;20384;-50
2021/12/21 06:06:15;;;;;;;4.40;1.10;;;;;;;2.74;100.00;101792.44;5077929;28;20035;-46
2021/12/21 06:08:43;;;;;;;1.25;1.15;;;;;;;2.77;100.00;101804.47;5083634;28;20043;-46
2021/12/21 06:11:09;;;;;;;0.73;0.73;;;;;;;2.75;100.00;101798.50;5076196;28;20532;-48
2021/12/21 06:26:25;;;;;;;5.80;0.70;;;;;;;2.71;100.00;101807.50;5081661;28;20028;-48
2021/12/21 06:28:50;;;;;;;1.20;0.20;;;;;;;2.70;100.00;101804.06;5083983;28;20949;-49
2021/12/21 06:31:16;;;;;;;2.90;0.77;;;;;;;2.67;100.00;101796.41;5083388;28;20500;-48
2021/12/21 06:33:42;;;;;;;1.52;0.57;;;;;;;2.69;100.00;101799.78;5084448;28;20438;-48
2021/12/21 06:36:09;;;;;;;1.33;0.95;;;;;;;2.68;100.00;101794.63;5080721;28;20028;-49
2021/12/21 06:38:35;;;;;;;7.25;1.55;;;;;;;2.66;100.00;101796.50;5080761;28;20881;-46
2021/12/21 06:41:01;;;;;;;3.85;0.93;;;;;;;2.65;100.00;101802.69;5079636;28;20067;-49
2021/12/21 06:43:27;;;;;;;2.88;0.50;;;;;;;2.63;100.00;101792.31;5084399;28;20024;-48
2021/12/21 06:46:04;;;;;;;3.28;0.50;;;;;;;2.64;100.00;101798.41;5080169;28;20134;-49
2021/12/21 06:51:18;;;;;;;1.17;0.40;;;;;;;2.64;100.00;101793.19;5079340;28;20123;-52
2021/12/21 06:53:48;;;;;;;1.50;0.20;;;;;;;2.66;100.00;101800.00;5077808;28;20063;-49
2021/12/21 06:56:14;;;;;;;3.42;0.80;;;;;;;2.61;100.00;101795.06;5076120;28;20039;-47
2021/12/21 06:58:40;;;;;;;5.63;1.67;;;;;;;2.60;100.00;101796.00;5081583;28;20033;-48
2021/12/21 07:01:05;;;;;;;0.43;0.35;;;;;;;2.59;100.00;101804.81;5079056;28;20480;-48
2021/12/21 07:03:31;;;;;;;5.15;0.50;;;;;;;2.57;100.00;101808.47;5082593;28;20036;-47
2021/12/21 07:06:01;;;;;;;2.72;0.90;;;;;;;2.59;100.00;101806.59;5072158;28;20063;-50
2021/12/21 07:08:29;;;;;;;4.25;0.50;;;;;;;2.59;100.00;101807.41;5080558;28;20385;-51
2021/12/21 07:19:11;;;;;;;7.00;0.68;;;;;;;2.64;100.00;101814.97;5047405;28;20518;-50
2021/12/21 07:21:37;;;;;;;6.70;0.80;;;;;;;2.66;100.00;101815.69;5076080;28;20043;-50
2021/12/21 07:24:02;;;;;;;2.63;0.68;;;;;;;2.66;100.00;101810.47;5072550;28;20035;-46
2021/12/21 07:26:28;;;;;;;3.60;0.50;;;;;;;2.64;100.00;101809.72;5043289;28;1115150;-50
2021/12/21 07:28:53;;;;;;;2.42;0.40;;;;;;;2.63;100.00;101815.88;5080752;28;20070;-51
2021/12/21 07:31:19;;;;;;;2.58;0.43;;;;;;;2.60;100.00;101814.31;5077726;28;20111;-49
2021/12/21 07:33:44;;;;;;;4.30;1.17;;;;;;;2.61;100.00;101813.41;5080977;28;20457;-51
2021/12/21 07:36:10;;;;;;;6.60;0.90;;;;;;;2.62;100.00;101807.19;5074331;28;20029;-49
2021/12/21 07:38:35;;;;;;;3.00;0.68;;;;;;;2.65;100.00;101807.94;5076263;28;20096;-47
2021/12/21 07:41:01;;;;;;;2.53;0.60;;;;;;;2.65;100.00;101803.53;5074036;28;20509;-51
2021/12/21 07:43:27;;;;;;;3.42;1.05;;;;;;;2.65;100.00;101800.09;5084954;28;20035;-48
2021/12/21 07:45:53;;;;;;;5.80;1.25;;;;;;;2.66;100.00;101800.00;5080234;28;20024;-47
2021/12/21 07:48:19;;;;;;;3.60;1.30;;;;;;;2.67;100.00;101796.41;5080394;28;20105;-48
2021/12/21 07:50:46;;;;;;;1.58;0.85;;;;;;;2.66;100.00;101804.38;5080111;28;20436;-49
2021/12/21 07:53:14;;;;;;;4.57;0.75;;;;;;;2.66;100.00;101807.84;5076269;28;20512;-50
2021/12/21 07:55:39;;;;;;;0.98;0.55;;;;;;;2.65;100.00;101811.38;5075803;28;20028;-46
2021/12/21 07:58:04;;;;;;;1.52;1.13;;;;;;;2.66;100.00;101813.09;5082800;28;20031;-48
2021/12/21 08:00:30;;;;;;;2.47;1.42;;;;;;;2.67;100.00;101812.13;5080940;28;20445;-49
2021/12/21 08:02:57;;;;;;;2.47;1.30;;;;;;;2.67;100.00;101814.75;5082594;28;20036;-48
2021/12/21 08:05:23;;;;;;;4.45;1.73;;;;;;;2.65;100.00;101821.88;5082081;28;20064;-49
2021/12/21 08:07:56;;;;;;;3.55;1.33;;;;;;;2.66;100.00;101817.47;5082193;28;20027;-47
2021/12/21 08:10:41;;;;;;;4.38;1.08;;;;;;;2.66;100.00;101818.31;5072411;28;20048;-51
2021/12/21 08:13:06;;;;;;;5.97;1.23;;;;;;;2.66;100.00;101812.22;5085769;28;20035;-49
2021/12/21 08:15:32;;;;;;;5.25;1.98;;;;;;;2.65;100.00;101821.03;5081076;28;20035;-50
2021/12/21 08:17:57;;;;;;;6.60;1.65;;;;;;;2.67;100.00;101830.47;5084133;28;20044;-48
2021/12/21 08:20:23;;;;;;;3.80;1.50;;;;;;;2.66;100.00;101820.94;5080554;28;20028;-52
2021/12/21 08:22:48;;;;;;;2.20;1.38;;;;;;;2.68;100.00;101826.88;5081850;28;20115;-48
2021/12/21 08:25:14;;;;;;;7.65;1.92;;;;;;;2.70;100.00;101824.16;5078884;28;20428;-51
2021/12/21 08:27:41;;;;;;;7.50;1.77;;;;;;;2.73;100.00;101813.47;5079698;28;20492;-49
2021/12/21 08:30:08;;;;;;;2.90;0.85;;;;;;;2.74;100.00;101817.78;5078452;28;20066;-47
2021/12/21 08:32:33;;;;;;;4.70;2.63;;;;;;;2.73;100.00;101813.47;5082321;28;20535;-52
2021/12/21 08:34:59;;;;;;;3.38;1.10;;;;;;;2.75;100.00;101822.06;5083329;28;20133;-48
2021/12/21 08:37:24;;;;;;;4.70;2.15;;;;;;;2.75;100.00;101820.28;5083569;28;20028;-52
2021/12/21 08:39:49;;;;;;;5.95;2.67;;;;;;;2.76;100.00;101813.25;5075206;28;20028;-50
2021/12/21 08:42:16;;;;;;;4.63;1.15;;;;;;;2.78;100.00;101812.19;5074982;28;20034;-52
2021/12/21 08:44:48;;;;;;;1.70;1.20;;;;;;;2.82;100.00;101816.28;5081062;28;20146;-49
2021/12/21 08:47:14;;;;;;;6.75;1.80;;;;;;;2.83;100.00;101809.25;5080290;28;20040;-49
2021/12/21 08:49:39;;;;;;;3.53;1.98;;;;;;;2.87;100.00;101812.53;5081329;28;20031;-50
2021/12/21 08:52:05;;;;;;;5.75;1.92;;;;;;;2.87;100.00;101802.88;5080870;28;20400;-51
2021/12/21 08:54:30;;;;;;;4.55;2.03;;;;;;;2.90;100.00;101809.69;5079957;28;20200;-51
2021/12/21 08:56:56;;;;;;;5.72;1.90;;;;;;;2.90;100.00;101813.13;5077321;28;20521;-52
2021/12/21 08:59:21;;;;;;;5.25;1.65;;;;;;;2.92;100.00;101805.16;5077434;28;20036;-51
2021/12/21 09:01:47;;;;;;;2.90;1.85;;;;;;;2.96;100.00;101804.00;5082953;28;20032;-50
2021/12/21 09:04:15;;;;;;;7.90;2.45;;;;;;;2.97;100.00;101803.91;5079780;28;20051;-53
2021/12/21 09:06:40;;;;;;;6.20;1.90;;;;;;;3.00;100.00;101805.47;5079558;28;20794;-48
2021/12/21 09:09:06;;;;;;;8.68;3.63;;;;;;;3.01;100.00;101807.13;5076947;28;20125;-53
2021/12/21 09:11:31;;;;;;;8.65;2.88;;;;;;;3.03;100.00;101808.69;5082736;28;20074;-48
2021/12/21 09:13:57;;;;;;;5.55;2.30;;;;;;;3.05;100.00;101811.22;5075762;28;20032;-47
2021/12/21 09:16:22;;;;;;;5.55;2.55;;;;;;;3.06;100.00;101810.25;5080659;28;20032;-49
2021/12/21 09:18:47;;;;;;;4.28;2.03;;;;;;;3.09;100.00;101817.06;5080616;28;20024;-51
2021/12/21 09:21:13;;;;;;;5.75;2.45;;;;;;;3.13;100.00;101811.50;5077870;28;20028;-50
2021/12/21 09:23:40;;;;;;;2.95;1.58;;;;;;;3.16;100.00;101821.75;5075116;28;20066;-51
2021/12/21 09:26:05;;;;;;;9.52;2.33;;;;;;;3.17;100.00;101819.97;5079329;28;20079;-49
2021/12/21 09:28:31;;;;;;;2.47;1.60;;;;;;;3.20;100.00;101817.13;5079106;28;20063;-47
2021/12/21 09:30:56;;;;;;;4.28;1.35;;;;;;;3.21;100.00;101827.50;5081132;28;20431;-49
2021/12/21 09:33:22;;;;;;;4.15;2.30;;;;;;;3.24;100.00;101827.28;5078215;28;20040;-50
2021/12/21 09:35:49;;;;;;;1.92;1.17;;;;;;;3.26;100.00;101828.00;5078361;28;20066;-50
2021/12/21 09:38:14;;;;;;;7.30;2.13;;;;;;;3.30;100.00;101830.41;5083270;28;20024;-50
2021/12/21 09:40:40;;;;;;;9.50;2.00;;;;;;;3.34;100.00;101824.84;5079428;28;20105;-50
2021/12/21 09:43:10;;;;;;;2.83;1.92;;;;;;;3.37;100.00;101829.03;5082577;28;20119;-49
2021/12/21 09:45:36;;;;;;;5.93;3.22;;;;;;;3.41;100.00;101830.50;5074839;28;20076;-48
2021/12/21 09:48:02;;;;;;;8.68;2.90;;;;;;;3.45;100.00;101832.75;5067442;28;20042;-52
2021/12/21 09:50:28;;;;;;;5.65;3.70;;;;;;;3.48;100.00;101832.56;5079116;28;20036;-52
2021/12/21 09:52:55;;;;;;;4.80;2.72;;;;;;;3.52;100.00;101837.56;5083765;28;20396;-53
2021/12/21 09:55:21;;;;;;;7.72;3.83;;;;;;;3.53;100.00;101845.31;5074970;28;20028;-51
2021/12/21 09:57:49;;;;;;;5.82;3.50;;;;;;;3.58;100.00;101844.97;5082205;28;20035;-49
2021/12/21 10:00:19;;;;;;;8.85;2.72;;;;;;;3.59;100.00;101850.13;5092685;28;20029;-48
2021/12/21 10:02:44;;;;;;;3.08;1.90;;;;;;;3.61;100.00;101858.69;5073887;28;20036;-49
2021/12/21 10:05:13;;;;;;;4.57;1.92;;;;;;;3.64;100.00;101863.75;5072792;28;20210;-48
2021/12/21 10:07:39;;;;;;;3.17;2.75;;;;;;;3.71;100.00;101861.50;5079029;28;20355;-50
2021/12/21 10:10:09;;;;;;;3.70;2.22;;;;;;;3.76;100.00;101858.53;5081717;28;20854;-47
2021/12/21 10:12:38;;;;;;;5.75;2.30;;;;;;;3.78;100.00;101860.09;5077100;28;20489;-48
2021/12/21 10:15:20;;;;;;;5.18;2.65;;;;;;;3.83;100.00;101867.63;5079414;28;20083;-49
2021/12/21 10:17:50;;;;;;;;;;;;;;;3.86;100.00;101863.00;5081078;28;20079;-46
2021/12/21 10:20:36;;;;;;;11.10;2.88;;;;;;;3.90;100.00;101864.44;5083208;28;19959;-48
2021/12/21 10:23:15;;;;;;;8.73;3.53;;;;;;;3.89;100.00;101859.28;5084755;28;20623;-48
2021/12/21 10:25:47;;;;;;;7.40;3.10;;;;;;;3.91;100.00;101860.03;5080748;28;20028;-48
2021/12/21 10:28:25;;;;;;;8.95;3.92;;;;;;;3.93;100.00;101863.38;5082505;28;20035;-50
2021/12/21 10:30:53;;;;;;;5.05;2.10;;;;;;;3.96;100.00;101855.28;5082715;28;20123;-51
2021/12/21 10:33:20;;;;;;;4.53;2.42;;;;;;;4.00;100.00;101854.09;5079538;28;20036;-52
2021/12/21 10:35:45;;;;;;;6.95;2.75;;;;;;;4.03;100.00;101853.03;5079265;28;20040;-53
2021/12/21 10:38:11;;;;;;;8.00;3.53;;;;;;;4.06;100.00;101853.63;5084128;28;20037;-48
2021/12/21 10:40:40;;;;;;;9.85;3.90;;;;;;;4.11;100.00;101856.75;5071754;28;20384;-50
2021/12/21 10:43:09;;;;;;;4.70;2.97;;;;;;;4.17;100.00;101850.19;5081624;28;20029;-51
2021/12/21 10:45:41;;;;;;;10.27;3.00;;;;;;;4.17;100.00;101850.19;5074254;28;20098;-50
2021/12/21 10:48:15;;;;;;;10.30;4.72;;;;;;;4.16;100.00;101843.28;5079513;28;20032;-52
2021/12/21 10:50:45;;;;;;;5.93;3.28;;;;;;;4.12;100.00;101834.78;5078220;28;20037;-52
2021/12/21 10:53:17;;;;;;;7.20;3.75;;;;;;;4.16;100.00;101832.78;5069269;28;20420;-49
2021/12/21 10:55:43;;;;;;;8.80;4.07;;;;;;;4.21;100.00;101835.91;5078026;28;20036;-48
2021/12/21 10:58:15;;;;;;;7.40;3.63;;;;;;;4.27;100.00;101837.22;5083180;28;20111;-51
2021/12/21 11:01:03;;;;;;;3.17;2.88;;;;;;;4.31;100.00;101836.00;5077202;28;20512;-51
2021/12/21 11:03:38;;;;;;;9.02;3.40;;;;;;;4.33;100.00;101832.31;5074909;28;20063;-47
2021/12/21 11:06:14;;;;;;;7.93;3.60;;;;;;;4.33;100.00;101836.75;5072672;28;20040;-49
2021/12/21 11:08:40;;;;;;;8.10;4.22;;;;;;;4.30;100.00;101840.44;5079891;28;20040;-47
2021/12/21 11:11:10;;;;;;;5.47;2.90;;;;;;;4.29;100.00;101830.91;5077754;28;20028;-52
2021/12/21 11:13:37;;;;;;;4.97;3.22;;;;;;;4.30;100.00;101823.84;5079296;28;20501;-49
2021/12/21 11:16:06;;;;;;;7.97;3.15;;;;;;;4.31;100.00;101822.88;5074616;28;20112;-47
2021/12/21 11:18:33;;;;;;;6.20;3.60;;;;;;;4.33;100.00;101827.06;5079185;28;20036;-48
2021/12/21 11:20:59;;;;;;;5.45;3.22;;;;;;;4.38;100.00;101831.97;5073526;28;20286;-50
2021/12/21 11:23:26;;;;;;;6.30;2.83;;;;;;;4.36;100.00;101831.25;5080763;28;20051;-49
2021/12/21 11:25:54;;;;;;;3.90;2.00;;;;;;;4.34;100.00;101820.88;5081511;28;20554;-46
2021/12/21 11:28:24;;;;;;;8.10;3.28;;;;;;;4.36;100.00;101818.97;5076478;28;20396;-51
2021/12/21 11:30:51;;;;;;;6.18;2.83;;;;;;;4.39;100.00;101817.91;5075978;28;20930;-50
2021/12/21 11:33:20;;;;;;;8.05;3.65;;;;;;;4.39;100.00;101810.03;5078547;28;20055;-49
2021/12/21 11:38:30;;;;;;;5.05;3.83;;;;;;;4.49;100.00;101810.13;5080337;28;20829;-49
2021/12/21 11:40:56;;;;;;;8.38;4.13;;;;;;;4.52;100.00;101804.66;5076884;28;20111;-49
2021/12/21 11:43:36;;;;;;;6.72;3.83;;;;;;;4.54;100.00;101806.22;5074713;28;20043;-46
2021/12/21 11:46:06;;;;;;;6.70;3.47;;;;;;;4.55;100.00;101805.25;5073956;28;20091;-46
2021/12/21 11:48:48;;;;;;;7.63;4.25;;;;;;;4.55;100.00;101807.88;5074456;28;20041;-48
2021/12/21 11:51:13;;;;;;;5.55;2.97;;;;;;;4.56;100.00;101796.41;5078397;28;20126;-49
2021/12/21 11:53:39;;;;;;;8.05;4.47;;;;;;;4.55;100.00;101792.13;5081400;28;20036;-49
2021/12/21 11:56:07;;;;;;;7.32;3.80;;;;;;;4.59;100.00;101792.69;5077434;28;20036;-47
2021/12/21 11:58:42;;;;;;;13.48;4.88;;;;;;;4.58;100.00;101781.38;5079226;28;20027;-48
2021/12/21 12:01:16;;;;;;;11.60;4.85;;;;;;;4.62;100.00;101781.13;5075143;28;20032;-49
2021/12/21 12:04:03;;;;;;;6.45;3.75;;;;;;;4.63;100.00;101777.56;5079577;28;20028;-51
2021/12/21 12:06:45;;;;;;;5.32;4.22;;;;;;;4.65;100.00;101773.03;5074859;28;20028;-51
2021/12/21 12:09:10;;;;;;;12.88;4.28;;;;;;;4.64;100.00;101759.03;5071133;28;20047;-52
2021/12/21 12:11:39;;;;;;;8.40;4.80;;;;;;;4.65;100.00;101744.94;5072642;28;20402;-47
2021/12/21 12:14:17;;;;;;;6.68;5.20;;;;;;;4.72;100.00;101755.78;5079874;28;20028;-49
2021/12/21 12:16:55;;;;;;;6.70;4.22;;;;;;;4.77;100.00;101751.84;5075278;28;20115;-51
2021/12/21 12:19:32;;;;;;;7.72;5.38;;;;;;;4.80;100.00;101742.88;5075724;28;20035;-51
2021/12/21 12:22:06;;;;;;;9.65;4.20;;;;;;;4.80;100.00;101735.84;5076453;28;20031;-51
2021/12/21 12:24:35;;;;;;;12.77;4.20;;;;;;;4.82;100.00;101730.47;5076109;28;20034;-48
2021/12/21 12:27:08;;;;;;;8.85;4.22;;;;;;;4.86;100.00;101731.88;5075773;28;20243;-51
2021/12/21 12:30:10;;;;;;;8.68;4.05;;;;;;;4.89;100.00;101749.22;5077145;28;20464;-48
2021/12/21 12:32:42;;;;;;;7.68;3.15;;;;;;;4.90;100.00;101738.56;5067874;28;20040;-49
2021/12/21 12:35:20;;;;;;;13.88;5.63;;;;;;;4.92;100.00;101741.91;5076592;28;20483;-49